sensor_id;sensor_type;location;lat;lon;timestamp;P1;durP1;ratioP1;P2;durP2;ratioP2
15425;SDS011;7812;50.072;7.036;2023-06-22T00:00:41;6.90;;;6.20;;
15425;SDS011;7812;50.072;7.036;2023-06-22T00:03:07;7.13;;;6.50;;
15425;SDS011;7812;50.072;7.036;2023-06-22T00:05:33;7.97;;;6.43;;
15425;SDS011;7812;50.072;7.036;2023-06-22T00:08:01;7.63;;;6.93;;
15425;SDS011;7812;50.072;7.036;2023-06-22T00:10:28;6.77;;;6.17;;
15425;SDS011;7812;50.072;7.036;2023-06-22T00:12:53;7.23;;;6.50;;
15425;SDS011;7812;50.072;7.036;2023-06-22T00:15:19;6.43;;;5.87;;
15425;SDS011;7812;50.072;7.036;2023-06-22T00:17:45;7.73;;;6.50;;
15425;SDS011;7812;50.072;7.036;2023-06-22T00:20:10;7.03;;;6.43;;
15425;SDS011;7812;50.072;7.036;2023-06-22T00:22:36;7.27;;;6.67;;
15425;SDS011;7812;50.072;7.036;2023-06-22T00:25:05;7.03;;;6.43;;
15425;SDS011;7812;50.072;7.036;2023-06-22T00:27:32;6.93;;;6.43;;
15425;SDS011;7812;50.072;7.036;2023-06-22T00:29:57;9.30;;;6.97;;
15425;SDS011;7812;50.072;7.036;2023-06-22T00:32:23;7.90;;;6.87;;
15425;SDS011;7812;50.072;7.036;2023-06-22T00:34:48;7.10;;;6.47;;
15425;SDS011;7812;50.072;7.036;2023-06-22T00:37:15;6.47;;;5.97;;
15425;SDS011;7812;50.072;7.036;2023-06-22T00:39:41;7.20;;;6.50;;
15425;SDS011;7812;50.072;7.036;2023-06-22T00:42:08;7.40;;;6.70;;
15425;SDS011;7812;50.072;7.036;2023-06-22T00:44:34;6.20;;;5.70;;
15425;SDS011;7812;50.072;7.036;2023-06-22T00:47:00;6.87;;;6.37;;
15425;SDS011;7812;50.072;7.036;2023-06-22T00:49:26;6.60;;;6.00;;
15425;SDS011;7812;50.072;7.036;2023-06-22T00:51:52;7.37;;;6.67;;
15425;SDS011;7812;50.072;7.036;2023-06-22T00:54:19;7.20;;;6.50;;
15425;SDS011;7812;50.072;7.036;2023-06-22T00:56:49;7.17;;;6.67;;
15425;SDS011;7812;50.072;7.036;2023-06-22T00:59:17;7.50;;;6.77;;
15425;SDS011;7812;50.072;7.036;2023-06-22T01:01:44;7.40;;;6.80;;
15425;SDS011;7812;50.072;7.036;2023-06-22T01:04:10;8.47;;;7.77;;
15425;SDS011;7812;50.072;7.036;2023-06-22T01:06:38;8.03;;;7.43;;
15425;SDS011;7812;50.072;7.036;2023-06-22T01:09:29;9.43;;;8.53;;
15425;SDS011;7812;50.072;7.036;2023-06-22T01:12:04;7.83;;;7.23;;
15425;SDS011;7812;50.072;7.036;2023-06-22T01:14:36;8.50;;;7.70;;
15425;SDS011;7812;50.072;7.036;2023-06-22T01:17:08;7.43;;;6.73;;
15425;SDS011;7812;50.072;7.036;2023-06-22T01:19:48;8.13;;;7.53;;
15425;SDS011;7812;50.072;7.036;2023-06-22T01:22:20;7.93;;;7.33;;
15425;SDS011;7812;50.072;7.036;2023-06-22T01:30:29;7.73;;;7.03;;
15425;SDS011;7812;50.072;7.036;2023-06-22T01:32:56;7.60;;;7.00;;
15425;SDS011;7812;50.072;7.036;2023-06-22T01:35:23;8.00;;;7.30;;
15425;SDS011;7812;50.072;7.036;2023-06-22T01:37:50;7.10;;;6.50;;
15425;SDS011;7812;50.072;7.036;2023-06-22T01:40:16;7.97;;;7.37;;
15425;SDS011;7812;50.072;7.036;2023-06-22T01:42:43;8.00;;;7.30;;
15425;SDS011;7812;50.072;7.036;2023-06-22T01:45:10;8.40;;;7.60;;
15425;SDS011;7812;50.072;7.036;2023-06-22T01:47:37;7.97;;;7.20;;
15425;SDS011;7812;50.072;7.036;2023-06-22T01:50:04;7.30;;;6.70;;
15425;SDS011;7812;50.072;7.036;2023-06-22T01:52:30;7.23;;;6.60;;
15425;SDS011;7812;50.072;7.036;2023-06-22T01:54:58;8.70;;;8.00;;
15425;SDS011;7812;50.072;7.036;2023-06-22T01:57:25;7.47;;;6.87;;
15425;SDS011;7812;50.072;7.036;2023-06-22T02:00:02;7.93;;;7.20;;
15425;SDS011;7812;50.072;7.036;2023-06-22T02:02:40;7.37;;;6.77;;
15425;SDS011;7812;50.072;7.036;2023-06-22T02:05:16;8.30;;;7.50;;
15425;SDS011;7812;50.072;7.036;2023-06-22T02:07:49;8.13;;;7.33;;
15425;SDS011;7812;50.072;7.036;2023-06-22T02:10:22;8.47;;;7.77;;
15425;SDS011;7812;50.072;7.036;2023-06-22T02:12:49;8.57;;;7.87;;
15425;SDS011;7812;50.072;7.036;2023-06-22T02:15:16;8.47;;;7.67;;
15425;SDS011;7812;50.072;7.036;2023-06-22T02:17:42;8.53;;;7.87;;
15425;SDS011;7812;50.072;7.036;2023-06-22T02:20:14;9.17;;;8.40;;
15425;SDS011;7812;50.072;7.036;2023-06-22T02:22:40;9.10;;;7.73;;
15425;SDS011;7812;50.072;7.036;2023-06-22T02:25:06;8.90;;;8.20;;
15425;SDS011;7812;50.072;7.036;2023-06-22T02:27:32;8.03;;;7.43;;
15425;SDS011;7812;50.072;7.036;2023-06-22T02:29:58;8.23;;;7.57;;
15425;SDS011;7812;50.072;7.036;2023-06-22T02:32:23;8.40;;;7.70;;
15425;SDS011;7812;50.072;7.036;2023-06-22T02:34:49;7.87;;;7.17;;
15425;SDS011;7812;50.072;7.036;2023-06-22T02:37:15;8.00;;;7.40;;
15425;SDS011;7812;50.072;7.036;2023-06-22T02:39:41;7.83;;;7.13;;
15425;SDS011;7812;50.072;7.036;2023-06-22T02:42:07;8.60;;;7.90;;
15425;SDS011;7812;50.072;7.036;2023-06-22T02:44:35;8.43;;;7.73;;
15425;SDS011;7812;50.072;7.036;2023-06-22T02:47:01;8.73;;;7.93;;
15425;SDS011;7812;50.072;7.036;2023-06-22T02:49:27;8.13;;;7.53;;
15425;SDS011;7812;50.072;7.036;2023-06-22T02:51:52;8.40;;;7.57;;
15425;SDS011;7812;50.072;7.036;2023-06-22T02:54:18;8.57;;;7.83;;
15425;SDS011;7812;50.072;7.036;2023-06-22T02:56:44;8.53;;;7.93;;
15425;SDS011;7812;50.072;7.036;2023-06-22T02:59:10;7.10;;;6.60;;
15425;SDS011;7812;50.072;7.036;2023-06-22T03:01:36;7.87;;;7.20;;
15425;SDS011;7812;50.072;7.036;2023-06-22T03:04:06;7.93;;;7.33;;
15425;SDS011;7812;50.072;7.036;2023-06-22T03:06:32;7.90;;;7.30;;
15425;SDS011;7812;50.072;7.036;2023-06-22T03:08:59;8.30;;;7.60;;
15425;SDS011;7812;50.072;7.036;2023-06-22T03:11:26;7.77;;;7.13;;
15425;SDS011;7812;50.072;7.036;2023-06-22T03:13:52;7.83;;;7.23;;
15425;SDS011;7812;50.072;7.036;2023-06-22T03:16:18;8.50;;;7.70;;
15425;SDS011;7812;50.072;7.036;2023-06-22T03:18:44;8.57;;;7.77;;
15425;SDS011;7812;50.072;7.036;2023-06-22T03:21:10;8.60;;;7.70;;
15425;SDS011;7812;50.072;7.036;2023-06-22T03:23:35;7.47;;;6.87;;
15425;SDS011;7812;50.072;7.036;2023-06-22T03:26:01;7.20;;;6.70;;
15425;SDS011;7812;50.072;7.036;2023-06-22T03:28:27;7.50;;;6.93;;
15425;SDS011;7812;50.072;7.036;2023-06-22T03:30:53;7.33;;;6.77;;
15425;SDS011;7812;50.072;7.036;2023-06-22T03:33:19;7.20;;;6.70;;
15425;SDS011;7812;50.072;7.036;2023-06-22T03:35:44;7.13;;;6.57;;
15425;SDS011;7812;50.072;7.036;2023-06-22T03:38:10;7.37;;;6.77;;
15425;SDS011;7812;50.072;7.036;2023-06-22T03:40:36;8.60;;;7.80;;
15425;SDS011;7812;50.072;7.036;2023-06-22T03:43:01;7.70;;;7.10;;
15425;SDS011;7812;50.072;7.036;2023-06-22T03:45:27;7.93;;;7.33;;
15425;SDS011;7812;50.072;7.036;2023-06-22T03:47:52;8.37;;;7.57;;
15425;SDS011;7812;50.072;7.036;2023-06-22T03:50:18;7.93;;;7.33;;
15425;SDS011;7812;50.072;7.036;2023-06-22T03:52:45;10.80;;;7.80;;
15425;SDS011;7812;50.072;7.036;2023-06-22T03:55:11;7.50;;;7.00;;
15425;SDS011;7812;50.072;7.036;2023-06-22T03:57:37;7.50;;;6.90;;
15425;SDS011;7812;50.072;7.036;2023-06-22T04:00:03;7.30;;;6.70;;
15425;SDS011;7812;50.072;7.036;2023-06-22T04:02:32;7.77;;;7.17;;
15425;SDS011;7812;50.072;7.036;2023-06-22T04:04:58;8.27;;;7.57;;
15425;SDS011;7812;50.072;7.036;2023-06-22T04:07:24;8.40;;;7.80;;
15425;SDS011;7812;50.072;7.036;2023-06-22T04:09:49;7.33;;;6.73;;
15425;SDS011;7812;50.072;7.036;2023-06-22T04:12:15;7.63;;;7.00;;
15425;SDS011;7812;50.072;7.036;2023-06-22T04:14:41;8.50;;;7.80;;
15425;SDS011;7812;50.072;7.036;2023-06-22T04:17:07;8.77;;;8.00;;
15425;SDS011;7812;50.072;7.036;2023-06-22T04:19:32;9.27;;;8.37;;
15425;SDS011;7812;50.072;7.036;2023-06-22T04:21:58;7.97;;;7.37;;
15425;SDS011;7812;50.072;7.036;2023-06-22T04:24:24;7.63;;;6.93;;
15425;SDS011;7812;50.072;7.036;2023-06-22T04:26:49;7.77;;;7.17;;
15425;SDS011;7812;50.072;7.036;2023-06-22T04:29:19;7.90;;;7.20;;
15425;SDS011;7812;50.072;7.036;2023-06-22T04:31:46;7.83;;;7.17;;
15425;SDS011;7812;50.072;7.036;2023-06-22T04:34:15;7.57;;;6.97;;
15425;SDS011;7812;50.072;7.036;2023-06-22T04:36:41;7.57;;;6.77;;
15425;SDS011;7812;50.072;7.036;2023-06-22T04:39:08;7.80;;;7.13;;
15425;SDS011;7812;50.072;7.036;2023-06-22T04:41:35;8.03;;;7.33;;
15425;SDS011;7812;50.072;7.036;2023-06-22T04:44:11;8.03;;;7.43;;
15425;SDS011;7812;50.072;7.036;2023-06-22T04:46:37;8.13;;;7.53;;
15425;SDS011;7812;50.072;7.036;2023-06-22T04:49:07;7.27;;;6.73;;
15425;SDS011;7812;50.072;7.036;2023-06-22T04:51:37;8.20;;;7.40;;
15425;SDS011;7812;50.072;7.036;2023-06-22T04:54:07;7.73;;;7.13;;
15425;SDS011;7812;50.072;7.036;2023-06-22T04:56:33;8.03;;;7.27;;
15425;SDS011;7812;50.072;7.036;2023-06-22T04:58:59;7.47;;;6.87;;
15425;SDS011;7812;50.072;7.036;2023-06-22T05:01:25;8.50;;;7.80;;
15425;SDS011;7812;50.072;7.036;2023-06-22T05:03:51;7.53;;;6.93;;
15425;SDS011;7812;50.072;7.036;2023-06-22T05:06:21;7.27;;;6.63;;
15425;SDS011;7812;50.072;7.036;2023-06-22T05:08:50;8.03;;;7.27;;
15425;SDS011;7812;50.072;7.036;2023-06-22T05:11:22;7.23;;;6.70;;
15425;SDS011;7812;50.072;7.036;2023-06-22T05:13:54;8.13;;;7.13;;
15425;SDS011;7812;50.072;7.036;2023-06-22T05:16:20;6.93;;;6.37;;
15425;SDS011;7812;50.072;7.036;2023-06-22T05:18:51;7.53;;;6.93;;
15425;SDS011;7812;50.072;7.036;2023-06-22T05:21:18;7.43;;;6.80;;
15425;SDS011;7812;50.072;7.036;2023-06-22T05:23:51;7.47;;;6.77;;
15425;SDS011;7812;50.072;7.036;2023-06-22T05:26:18;6.77;;;6.27;;
15425;SDS011;7812;50.072;7.036;2023-06-22T05:28:45;6.77;;;6.27;;
15425;SDS011;7812;50.072;7.036;2023-06-22T05:31:12;6.40;;;5.90;;
15425;SDS011;7812;50.072;7.036;2023-06-22T05:33:42;6.87;;;6.30;;
15425;SDS011;7812;50.072;7.036;2023-06-22T05:36:09;6.93;;;6.33;;
15425;SDS011;7812;50.072;7.036;2023-06-22T05:38:35;6.93;;;6.43;;
15425;SDS011;7812;50.072;7.036;2023-06-22T05:41:02;7.00;;;6.50;;
15425;SDS011;7812;50.072;7.036;2023-06-22T05:43:27;6.53;;;6.03;;
15425;SDS011;7812;50.072;7.036;2023-06-22T05:45:53;6.37;;;5.77;;
15425;SDS011;7812;50.072;7.036;2023-06-22T05:48:19;6.97;;;6.47;;
15425;SDS011;7812;50.072;7.036;2023-06-22T05:50:45;6.40;;;5.87;;
15425;SDS011;7812;50.072;7.036;2023-06-22T05:53:10;6.20;;;5.60;;
15425;SDS011;7812;50.072;7.036;2023-06-22T05:55:36;5.60;;;5.10;;
15425;SDS011;7812;50.072;7.036;2023-06-22T05:58:02;5.53;;;5.13;;
15425;SDS011;7812;50.072;7.036;2023-06-22T06:00:30;5.47;;;5.07;;
15425;SDS011;7812;50.072;7.036;2023-06-22T06:02:56;5.27;;;4.80;;
15425;SDS011;7812;50.072;7.036;2023-06-22T06:05:22;5.40;;;4.90;;
15425;SDS011;7812;50.072;7.036;2023-06-22T06:07:48;6.00;;;5.53;;
15425;SDS011;7812;50.072;7.036;2023-06-22T06:10:14;6.20;;;5.70;;
15425;SDS011;7812;50.072;7.036;2023-06-22T06:12:40;6.10;;;5.60;;
15425;SDS011;7812;50.072;7.036;2023-06-22T06:15:06;6.70;;;5.27;;
15425;SDS011;7812;50.072;7.036;2023-06-22T06:17:32;6.53;;;5.37;;
15425;SDS011;7812;50.072;7.036;2023-06-22T06:19:59;6.13;;;5.53;;
15425;SDS011;7812;50.072;7.036;2023-06-22T06:22:25;5.30;;;4.80;;
15425;SDS011;7812;50.072;7.036;2023-06-22T06:24:50;5.70;;;5.30;;
15425;SDS011;7812;50.072;7.036;2023-06-22T06:27:16;6.07;;;5.53;;
15425;SDS011;7812;50.072;7.036;2023-06-22T06:29:44;5.87;;;5.33;;
15425;SDS011;7812;50.072;7.036;2023-06-22T06:32:13;6.43;;;5.83;;
15425;SDS011;7812;50.072;7.036;2023-06-22T06:34:38;6.17;;;5.67;;
15425;SDS011;7812;50.072;7.036;2023-06-22T06:37:05;13.50;;;5.90;;
15425;SDS011;7812;50.072;7.036;2023-06-22T06:39:31;6.23;;;5.73;;
15425;SDS011;7812;50.072;7.036;2023-06-22T06:41:56;6.33;;;5.83;;
15425;SDS011;7812;50.072;7.036;2023-06-22T06:44:22;5.57;;;5.13;;
15425;SDS011;7812;50.072;7.036;2023-06-22T06:46:47;6.33;;;5.73;;
15425;SDS011;7812;50.072;7.036;2023-06-22T06:49:14;6.33;;;5.47;;
15425;SDS011;7812;50.072;7.036;2023-06-22T06:51:39;8.47;;;6.30;;
15425;SDS011;7812;50.072;7.036;2023-06-22T06:54:05;6.20;;;5.70;;
15425;SDS011;7812;50.072;7.036;2023-06-22T06:56:30;6.23;;;5.73;;
15425;SDS011;7812;50.072;7.036;2023-06-22T06:58:57;6.43;;;5.93;;
15425;SDS011;7812;50.072;7.036;2023-06-22T07:01:23;6.00;;;5.50;;
15425;SDS011;7812;50.072;7.036;2023-06-22T07:03:49;6.03;;;5.50;;
15425;SDS011;7812;50.072;7.036;2023-06-22T07:06:15;5.73;;;5.23;;
15425;SDS011;7812;50.072;7.036;2023-06-22T07:08:41;6.17;;;5.57;;
15425;SDS011;7812;50.072;7.036;2023-06-22T07:11:07;6.47;;;5.40;;
15425;SDS011;7812;50.072;7.036;2023-06-22T07:13:33;5.53;;;5.03;;
15425;SDS011;7812;50.072;7.036;2023-06-22T07:15:59;6.93;;;6.23;;
15425;SDS011;7812;50.072;7.036;2023-06-22T07:18:25;6.30;;;5.80;;
15425;SDS011;7812;50.072;7.036;2023-06-22T07:20:51;6.40;;;5.70;;
15425;SDS011;7812;50.072;7.036;2023-06-22T07:23:17;6.13;;;5.63;;
15425;SDS011;7812;50.072;7.036;2023-06-22T07:25:43;6.40;;;5.70;;
15425;SDS011;7812;50.072;7.036;2023-06-22T07:28:09;5.87;;;5.37;;
15425;SDS011;7812;50.072;7.036;2023-06-22T07:30:34;6.60;;;6.00;;
15425;SDS011;7812;50.072;7.036;2023-06-22T07:33:01;6.20;;;5.70;;
15425;SDS011;7812;50.072;7.036;2023-06-22T07:35:28;5.73;;;5.20;;
15425;SDS011;7812;50.072;7.036;2023-06-22T07:37:55;7.90;;;5.93;;
15425;SDS011;7812;50.072;7.036;2023-06-22T07:40:20;5.60;;;5.13;;
15425;SDS011;7812;50.072;7.036;2023-06-22T07:42:46;5.43;;;4.93;;
15425;SDS011;7812;50.072;7.036;2023-06-22T07:45:16;5.77;;;5.17;;
15425;SDS011;7812;50.072;7.036;2023-06-22T07:47:42;5.43;;;4.93;;
15425;SDS011;7812;50.072;7.036;2023-06-22T07:50:08;7.20;;;5.27;;
15425;SDS011;7812;50.072;7.036;2023-06-22T07:52:34;5.70;;;5.20;;
15425;SDS011;7812;50.072;7.036;2023-06-22T07:55:00;5.97;;;5.47;;
15425;SDS011;7812;50.072;7.036;2023-06-22T07:57:27;6.73;;;5.63;;
15425;SDS011;7812;50.072;7.036;2023-06-22T07:59:58;5.80;;;5.30;;
15425;SDS011;7812;50.072;7.036;2023-06-22T08:02:31;5.70;;;5.30;;
15425;SDS011;7812;50.072;7.036;2023-06-22T08:04:57;6.20;;;5.60;;
15425;SDS011;7812;50.072;7.036;2023-06-22T08:07:22;5.53;;;5.00;;
15425;SDS011;7812;50.072;7.036;2023-06-22T08:09:48;5.53;;;5.03;;
15425;SDS011;7812;50.072;7.036;2023-06-22T08:12:15;5.43;;;4.90;;
15425;SDS011;7812;50.072;7.036;2023-06-22T08:14:41;5.20;;;4.70;;
15425;SDS011;7812;50.072;7.036;2023-06-22T08:17:08;6.00;;;5.00;;
15425;SDS011;7812;50.072;7.036;2023-06-22T08:19:33;5.60;;;5.20;;
15425;SDS011;7812;50.072;7.036;2023-06-22T08:21:59;5.97;;;5.43;;
15425;SDS011;7812;50.072;7.036;2023-06-22T08:24:25;6.07;;;5.47;;
15425;SDS011;7812;50.072;7.036;2023-06-22T08:26:51;5.10;;;4.70;;
15425;SDS011;7812;50.072;7.036;2023-06-22T08:29:17;5.00;;;4.60;;
15425;SDS011;7812;50.072;7.036;2023-06-22T08:31:45;5.30;;;4.80;;
15425;SDS011;7812;50.072;7.036;2023-06-22T08:34:11;5.07;;;4.63;;
15425;SDS011;7812;50.072;7.036;2023-06-22T08:36:37;5.20;;;4.70;;
15425;SDS011;7812;50.072;7.036;2023-06-22T08:39:10;5.47;;;5.07;;
15425;SDS011;7812;50.072;7.036;2023-06-22T08:41:35;5.03;;;4.63;;
15425;SDS011;7812;50.072;7.036;2023-06-22T08:44:01;6.13;;;5.50;;
15425;SDS011;7812;50.072;7.036;2023-06-22T08:46:27;5.47;;;4.97;;
15425;SDS011;7812;50.072;7.036;2023-06-22T08:48:59;5.70;;;5.23;;
15425;SDS011;7812;50.072;7.036;2023-06-22T08:51:25;6.60;;;5.50;;
15425;SDS011;7812;50.072;7.036;2023-06-22T08:53:51;6.17;;;5.57;;
15425;SDS011;7812;50.072;7.036;2023-06-22T08:56:17;5.37;;;4.87;;
15425;SDS011;7812;50.072;7.036;2023-06-22T08:58:43;6.70;;;5.70;;
15425;SDS011;7812;50.072;7.036;2023-06-22T09:01:09;6.00;;;5.50;;
15425;SDS011;7812;50.072;7.036;2023-06-22T09:03:35;6.73;;;6.03;;
15425;SDS011;7812;50.072;7.036;2023-06-22T09:06:02;6.13;;;5.60;;
15425;SDS011;7812;50.072;7.036;2023-06-22T09:08:28;6.50;;;6.00;;
15425;SDS011;7812;50.072;7.036;2023-06-22T09:10:54;6.50;;;6.00;;
15425;SDS011;7812;50.072;7.036;2023-06-22T09:13:20;7.20;;;6.60;;
15425;SDS011;7812;50.072;7.036;2023-06-22T09:15:45;6.50;;;6.00;;
15425;SDS011;7812;50.072;7.036;2023-06-22T09:18:13;6.67;;;6.17;;
15425;SDS011;7812;50.072;7.036;2023-06-22T09:20:39;6.47;;;5.87;;
15425;SDS011;7812;50.072;7.036;2023-06-22T09:23:05;6.53;;;5.93;;
15425;SDS011;7812;50.072;7.036;2023-06-22T09:25:32;6.87;;;6.10;;
15425;SDS011;7812;50.072;7.036;2023-06-22T09:27:57;7.43;;;6.27;;
15425;SDS011;7812;50.072;7.036;2023-06-22T09:30:23;6.60;;;6.07;;
15425;SDS011;7812;50.072;7.036;2023-06-22T09:32:49;6.70;;;6.10;;
15425;SDS011;7812;50.072;7.036;2023-06-22T09:35:14;6.60;;;6.10;;
15425;SDS011;7812;50.072;7.036;2023-06-22T09:37:40;6.00;;;5.50;;
15425;SDS011;7812;50.072;7.036;2023-06-22T09:40:06;6.23;;;5.67;;
15425;SDS011;7812;50.072;7.036;2023-06-22T09:42:37;6.43;;;5.83;;
15425;SDS011;7812;50.072;7.036;2023-06-22T09:45:04;6.73;;;6.07;;
15425;SDS011;7812;50.072;7.036;2023-06-22T09:47:30;6.80;;;5.73;;
15425;SDS011;7812;50.072;7.036;2023-06-22T09:49:56;6.77;;;6.07;;
15425;SDS011;7812;50.072;7.036;2023-06-22T09:52:24;6.93;;;6.30;;
15425;SDS011;7812;50.072;7.036;2023-06-22T09:54:49;7.87;;;7.10;;
15425;SDS011;7812;50.072;7.036;2023-06-22T09:57:15;8.53;;;6.93;;
15425;SDS011;7812;50.072;7.036;2023-06-22T09:59:40;9.63;;;7.40;;
15425;SDS011;7812;50.072;7.036;2023-06-22T10:02:06;8.20;;;7.43;;
15425;SDS011;7812;50.072;7.036;2023-06-22T10:04:33;9.10;;;7.87;;
15425;SDS011;7812;50.072;7.036;2023-06-22T10:06:59;7.97;;;7.27;;
15425;SDS011;7812;50.072;7.036;2023-06-22T10:09:26;8.80;;;8.10;;
15425;SDS011;7812;50.072;7.036;2023-06-22T10:11:51;8.53;;;7.83;;
15425;SDS011;7812;50.072;7.036;2023-06-22T10:14:17;7.57;;;6.87;;
15425;SDS011;7812;50.072;7.036;2023-06-22T10:16:43;8.47;;;7.40;;
15425;SDS011;7812;50.072;7.036;2023-06-22T10:19:08;8.00;;;7.30;;
15425;SDS011;7812;50.072;7.036;2023-06-22T10:21:34;8.40;;;7.57;;
15425;SDS011;7812;50.072;7.036;2023-06-22T10:24:00;8.20;;;7.50;;
15425;SDS011;7812;50.072;7.036;2023-06-22T10:26:31;7.77;;;7.10;;
15425;SDS011;7812;50.072;7.036;2023-06-22T10:28:58;7.80;;;7.00;;
15425;SDS011;7812;50.072;7.036;2023-06-22T10:31:24;6.50;;;5.90;;
15425;SDS011;7812;50.072;7.036;2023-06-22T10:33:49;6.67;;;5.97;;
15425;SDS011;7812;50.072;7.036;2023-06-22T10:36:15;7.30;;;6.70;;
15425;SDS011;7812;50.072;7.036;2023-06-22T10:38:41;8.17;;;7.00;;
15425;SDS011;7812;50.072;7.036;2023-06-22T10:41:06;7.30;;;6.60;;
15425;SDS011;7812;50.072;7.036;2023-06-22T10:43:32;6.07;;;5.57;;
15425;SDS011;7812;50.072;7.036;2023-06-22T10:45:58;6.20;;;5.67;;
15425;SDS011;7812;50.072;7.036;2023-06-22T10:48:23;6.73;;;6.13;;
15425;SDS011;7812;50.072;7.036;2023-06-22T10:50:49;5.90;;;5.40;;
15425;SDS011;7812;50.072;7.036;2023-06-22T10:53:15;6.47;;;5.93;;
15425;SDS011;7812;50.072;7.036;2023-06-22T10:55:40;5.83;;;5.33;;
15425;SDS011;7812;50.072;7.036;2023-06-22T10:58:06;5.67;;;5.27;;
15425;SDS011;7812;50.072;7.036;2023-06-22T11:00:32;5.90;;;5.40;;
15425;SDS011;7812;50.072;7.036;2023-06-22T11:02:57;6.20;;;5.67;;
15425;SDS011;7812;50.072;7.036;2023-06-22T11:05:23;6.10;;;5.60;;
15425;SDS011;7812;50.072;7.036;2023-06-22T11:07:49;6.43;;;5.83;;
15425;SDS011;7812;50.072;7.036;2023-06-22T11:10:15;6.27;;;5.77;;
15425;SDS011;7812;50.072;7.036;2023-06-22T11:12:41;6.37;;;5.87;;
15425;SDS011;7812;50.072;7.036;2023-06-22T11:15:09;6.30;;;5.80;;
15425;SDS011;7812;50.072;7.036;2023-06-22T11:17:35;6.07;;;5.50;;
15425;SDS011;7812;50.072;7.036;2023-06-22T11:20:01;7.60;;;5.63;;
15425;SDS011;7812;50.072;7.036;2023-06-22T11:22:34;5.57;;;5.17;;
15425;SDS011;7812;50.072;7.036;2023-06-22T11:25:00;5.87;;;5.37;;
15425;SDS011;7812;50.072;7.036;2023-06-22T11:27:26;5.87;;;5.47;;
15425;SDS011;7812;50.072;7.036;2023-06-22T11:29:51;6.20;;;5.60;;
15425;SDS011;7812;50.072;7.036;2023-06-22T11:32:18;5.80;;;5.37;;
15425;SDS011;7812;50.072;7.036;2023-06-22T11:34:44;6.17;;;5.53;;
15425;SDS011;7812;50.072;7.036;2023-06-22T11:37:09;6.07;;;5.00;;
15425;SDS011;7812;50.072;7.036;2023-06-22T11:39:35;6.70;;;6.10;;
15425;SDS011;7812;50.072;7.036;2023-06-22T11:42:01;6.20;;;5.70;;
15425;SDS011;7812;50.072;7.036;2023-06-22T11:44:26;6.40;;;5.90;;
15425;SDS011;7812;50.072;7.036;2023-06-22T11:46:52;5.77;;;4.87;;
15425;SDS011;7812;50.072;7.036;2023-06-22T11:49:18;5.83;;;5.33;;
15425;SDS011;7812;50.072;7.036;2023-06-22T11:51:43;5.97;;;5.37;;
15425;SDS011;7812;50.072;7.036;2023-06-22T11:54:09;5.50;;;5.00;;
15425;SDS011;7812;50.072;7.036;2023-06-22T11:56:38;5.40;;;4.90;;
15425;SDS011;7812;50.072;7.036;2023-06-22T11:59:04;5.50;;;5.07;;
15425;SDS011;7812;50.072;7.036;2023-06-22T12:01:30;5.77;;;5.27;;
15425;SDS011;7812;50.072;7.036;2023-06-22T12:03:58;5.43;;;5.00;;
15425;SDS011;7812;50.072;7.036;2023-06-22T12:06:24;5.73;;;5.23;;
15425;SDS011;7812;50.072;7.036;2023-06-22T12:08:50;5.27;;;4.87;;
15425;SDS011;7812;50.072;7.036;2023-06-22T12:11:16;6.20;;;5.60;;
15425;SDS011;7812;50.072;7.036;2023-06-22T12:13:41;6.50;;;6.00;;
15425;SDS011;7812;50.072;7.036;2023-06-22T12:16:07;7.47;;;6.20;;
15425;SDS011;7812;50.072;7.036;2023-06-22T12:18:34;6.00;;;5.53;;
15425;SDS011;7812;50.072;7.036;2023-06-22T12:21:00;6.03;;;5.53;;
15425;SDS011;7812;50.072;7.036;2023-06-22T12:23:25;6.73;;;6.23;;
15425;SDS011;7812;50.072;7.036;2023-06-22T12:25:51;6.37;;;5.77;;
15425;SDS011;7812;50.072;7.036;2023-06-22T12:28:17;6.67;;;6.17;;
15425;SDS011;7812;50.072;7.036;2023-06-22T12:30:42;6.47;;;5.93;;
15425;SDS011;7812;50.072;7.036;2023-06-22T12:33:08;6.50;;;5.90;;
15425;SDS011;7812;50.072;7.036;2023-06-22T12:35:34;6.67;;;6.13;;
15425;SDS011;7812;50.072;7.036;2023-06-22T12:38:00;6.53;;;6.03;;
15425;SDS011;7812;50.072;7.036;2023-06-22T12:40:26;5.90;;;5.40;;
15425;SDS011;7812;50.072;7.036;2023-06-22T12:42:51;6.10;;;5.60;;
15425;SDS011;7812;50.072;7.036;2023-06-22T12:45:17;7.00;;;6.23;;
15425;SDS011;7812;50.072;7.036;2023-06-22T12:47:43;6.33;;;5.73;;
15425;SDS011;7812;50.072;7.036;2023-06-22T12:50:09;6.10;;;5.47;;
15425;SDS011;7812;50.072;7.036;2023-06-22T12:52:36;6.37;;;5.87;;
15425;SDS011;7812;50.072;7.036;2023-06-22T12:55:06;7.23;;;6.53;;
15425;SDS011;7812;50.072;7.036;2023-06-22T12:57:32;8.13;;;6.83;;
15425;SDS011;7812;50.072;7.036;2023-06-22T12:59:57;8.93;;;6.20;;
15425;SDS011;7812;50.072;7.036;2023-06-22T13:02:25;6.53;;;5.80;;
15425;SDS011;7812;50.072;7.036;2023-06-22T13:04:51;7.93;;;6.43;;
15425;SDS011;7812;50.072;7.036;2023-06-22T13:07:16;6.97;;;6.30;;
15425;SDS011;7812;50.072;7.036;2023-06-22T13:09:42;7.23;;;6.53;;
15425;SDS011;7812;50.072;7.036;2023-06-22T13:12:10;7.37;;;6.27;;
15425;SDS011;7812;50.072;7.036;2023-06-22T13:14:36;7.27;;;6.40;;
15425;SDS011;7812;50.072;7.036;2023-06-22T13:17:01;6.60;;;6.10;;
15425;SDS011;7812;50.072;7.036;2023-06-22T13:19:27;7.00;;;6.40;;
15425;SDS011;7812;50.072;7.036;2023-06-22T13:21:57;6.97;;;6.37;;
15425;SDS011;7812;50.072;7.036;2023-06-22T13:24:23;7.93;;;7.23;;
15425;SDS011;7812;50.072;7.036;2023-06-22T13:26:48;9.50;;;7.50;;
15425;SDS011;7812;50.072;7.036;2023-06-22T13:29:14;9.27;;;7.60;;
15425;SDS011;7812;50.072;7.036;2023-06-22T13:31:39;8.57;;;7.73;;
15425;SDS011;7812;50.072;7.036;2023-06-22T13:34:05;6.83;;;6.13;;
15425;SDS011;7812;50.072;7.036;2023-06-22T13:36:31;7.80;;;5.80;;
15425;SDS011;7812;50.072;7.036;2023-06-22T13:38:57;7.33;;;6.63;;
15425;SDS011;7812;50.072;7.036;2023-06-22T13:41:23;8.13;;;7.33;;
15425;SDS011;7812;50.072;7.036;2023-06-22T13:43:49;8.63;;;7.70;;
15425;SDS011;7812;50.072;7.036;2023-06-22T13:46:14;7.53;;;6.30;;
15425;SDS011;7812;50.072;7.036;2023-06-22T13:48:40;10.23;;;6.67;;
15425;SDS011;7812;50.072;7.036;2023-06-22T13:51:06;11.30;;;6.50;;
15425;SDS011;7812;50.072;7.036;2023-06-22T13:53:33;7.10;;;5.70;;
15425;SDS011;7812;50.072;7.036;2023-06-22T13:55:58;6.80;;;4.53;;
15425;SDS011;7812;50.072;7.036;2023-06-22T13:58:24;7.80;;;5.13;;
15425;SDS011;7812;50.072;7.036;2023-06-22T14:00:50;8.00;;;5.40;;
15425;SDS011;7812;50.072;7.036;2023-06-22T14:03:15;14.17;;;5.50;;
15425;SDS011;7812;50.072;7.036;2023-06-22T14:05:42;7.43;;;4.30;;
15425;SDS011;7812;50.072;7.036;2023-06-22T14:08:08;6.30;;;4.50;;
15425;SDS011;7812;50.072;7.036;2023-06-22T14:10:34;9.93;;;5.47;;
15425;SDS011;7812;50.072;7.036;2023-06-22T14:13:00;10.40;;;4.50;;
15425;SDS011;7812;50.072;7.036;2023-06-22T14:15:25;9.40;;;4.40;;
15425;SDS011;7812;50.072;7.036;2023-06-22T14:17:51;7.30;;;4.20;;
15425;SDS011;7812;50.072;7.036;2023-06-22T14:20:17;9.47;;;4.83;;
15425;SDS011;7812;50.072;7.036;2023-06-22T14:22:43;10.67;;;5.20;;
15425;SDS011;7812;50.072;7.036;2023-06-22T14:25:09;10.13;;;5.70;;
15425;SDS011;7812;50.072;7.036;2023-06-22T14:27:34;12.27;;;5.73;;
15425;SDS011;7812;50.072;7.036;2023-06-22T14:30:00;10.67;;;5.70;;
15425;SDS011;7812;50.072;7.036;2023-06-22T14:32:27;11.30;;;5.43;;
15425;SDS011;7812;50.072;7.036;2023-06-22T14:34:55;11.87;;;5.63;;
15425;SDS011;7812;50.072;7.036;2023-06-22T14:37:20;9.97;;;5.97;;
15425;SDS011;7812;50.072;7.036;2023-06-22T14:39:46;11.13;;;6.30;;
15425;SDS011;7812;50.072;7.036;2023-06-22T14:42:12;8.20;;;5.07;;
15425;SDS011;7812;50.072;7.036;2023-06-22T14:44:37;12.70;;;6.63;;
15425;SDS011;7812;50.072;7.036;2023-06-22T14:47:03;12.37;;;5.90;;
15425;SDS011;7812;50.072;7.036;2023-06-22T14:49:29;11.33;;;6.27;;
15425;SDS011;7812;50.072;7.036;2023-06-22T14:51:55;12.93;;;6.57;;
15425;SDS011;7812;50.072;7.036;2023-06-22T14:54:21;9.10;;;6.13;;
15425;SDS011;7812;50.072;7.036;2023-06-22T14:56:50;14.70;;;5.97;;
15425;SDS011;7812;50.072;7.036;2023-06-22T14:59:16;12.87;;;5.70;;
15425;SDS011;7812;50.072;7.036;2023-06-22T15:01:41;11.37;;;5.80;;